TimePDT,TemperatureF,Dew PointF,Humidity,Sea Level PressureIn,VisibilityMPH,Wind Direction,Wind SpeedMPH,Gust SpeedMPH,PrecipitationIn,Events,Conditions,WindDirDegrees,DateUTC
12:56 AM,30.0,10.9,45,30.29,10.0,Calm,Calm,-,N/A,,Clear,0,2012-10-18 07:56:00
1:56 AM,28.9,10.9,47,30.29,10.0,Calm,Calm,-,N/A,,Clear,0,2012-10-18 08:56:00
3:56 AM,28.9,9.0,43,30.29,10.0,East,5.8,-,N/A,,Clear,100,2012-10-18 10:56:00
4:56 AM,30.0,9.0,41,30.30,10.0,ENE,4.6,-,N/A,,Clear,70,2012-10-18 11:56:00
5:56 AM,26.1,7.0,44,30.33,10.0,Calm,Calm,-,N/A,,Clear,0,2012-10-18 12:56:00
7:56 AM,28.0,10.0,47,30.38,5.0,Calm,Calm,-,N/A,,Haze,0,2012-10-18 14:56:00
9:56 AM,44.1,10.0,25,30.34,10.0,East,3.5,-,N/A,,Clear,100,2012-10-18 16:56:00
10:56 AM,51.1,10.9,20,30.31,10.0,Calm,Calm,-,N/A,,Clear,0,2012-10-18 17:56:00
11:56 AM,59.0,12.0,16,30.28,10.0,Variable,3.5,-,N/A,,Clear,0,2012-10-18 18:56:00
12:56 PM,62.1,10.9,13,30.26,10.0,Calm,Calm,-,N/A,,Clear,0,2012-10-18 19:56:00
1:56 PM,64.9,15.1,15,30.22,10.0,Calm,Calm,-,N/A,,Clear,0,2012-10-18 20:56:00
3:56 PM,66.9,17.1,15,30.18,10.0,Calm,Calm,-,N/A,,Clear,0,2012-10-18 22:56:00
4:56 PM,68.0,16.0,14,30.16,10.0,Calm,Calm,-,N/A,,Clear,0,2012-10-18 23:56:00
5:56 PM,62.1,19.0,19,30.16,10.0,ESE,3.5,-,N/A,,Clear,110,2012-10-19 00:56:00
6:56 PM,53.1,17.1,24,30.19,10.0,NNW,4.6,-,N/A,,Clear,340,2012-10-19 01:56:00
7:56 PM,51.1,18.0,27,30.19,10.0,Calm,Calm,-,N/A,,Clear,0,2012-10-19 02:56:00
8:56 PM,44.1,15.1,31,30.18,10.0,Calm,Calm,-,N/A,,Clear,0,2012-10-19 03:56:00
9:56 PM,42.1,17.1,37,30.18,6.0,ENE,4.6,-,N/A,,Haze,60,2012-10-19 04:56:00
10:56 PM,39.9,17.1,40,30.17,10.0,ENE,5.8,-,N/A,,Clear,60,2012-10-19 05:56:00
11:56 PM,36.0,14.0,41,30.15,10.0,Calm,Calm,-,N/A,,Clear,0,2012-10-19 06:56:00